sensor_id;sensor_type;location;lat;lon;timestamp;pressure;altitude;pressure_sealevel;temperature;humidity
66021;BME280;52789;59.980;30.346;2023-01-31T00:00:18;97748.16;;;1.29;100.00
66021;BME280;52789;59.980;30.346;2023-01-31T00:02:44;97749.78;;;1.30;100.00
66021;BME280;52789;59.980;30.346;2023-01-31T00:05:10;97751.41;;;1.31;100.00
66021;BME280;52789;59.980;30.346;2023-01-31T00:07:35;97755.03;;;1.30;100.00
66021;BME280;52789;59.980;30.346;2023-01-31T00:10:01;97762.72;;;1.32;100.00
66021;BME280;52789;59.980;30.346;2023-01-31T00:12:26;97751.69;;;1.36;100.00
66021;BME280;52789;59.980;30.346;2023-01-31T00:14:51;97744.91;;;1.42;100.00
66021;BME280;52789;59.980;30.346;2023-01-31T00:17:17;97752.78;;;1.42;100.00
66021;BME280;52789;59.980;30.346;2023-01-31T00:19:42;97757.22;;;1.41;100.00
66021;BME280;52789;59.980;30.346;2023-01-31T00:22:07;97755.22;;;1.43;100.00
66021;BME280;52789;59.980;30.346;2023-01-31T00:24:33;97748.03;;;1.45;100.00
66021;BME280;52789;59.980;30.346;2023-01-31T00:27:01;97756.41;;;1.41;100.00
66021;BME280;52789;59.980;30.346;2023-01-31T00:29:26;97762.47;;;1.41;100.00
66021;BME280;52789;59.980;30.346;2023-01-31T00:31:52;97758.84;;;1.42;100.00
66021;BME280;52789;59.980;30.346;2023-01-31T00:34:17;97758.22;;;1.40;100.00
66021;BME280;52789;59.980;30.346;2023-01-31T00:36:42;97759.84;;;1.41;100.00
66021;BME280;52789;59.980;30.346;2023-01-31T00:39:08;97758.84;;;1.42;100.00
66021;BME280;52789;59.980;30.346;2023-01-31T00:41:34;97761.16;;;1.45;100.00
66021;BME280;52789;59.980;30.346;2023-01-31T00:44:01;97757.84;;;1.43;100.00
66021;BME280;52789;59.980;30.346;2023-01-31T00:46:26;97760.84;;;1.40;100.00
66021;BME280;52789;59.980;30.346;2023-01-31T00:48:52;97757.22;;;1.41;100.00
66021;BME280;52789;59.980;30.346;2023-01-31T00:51:17;97766.91;;;1.41;100.00
66021;BME280;52789;59.980;30.346;2023-01-31T00:53:43;97763.63;;;1.39;100.00
66021;BME280;52789;59.980;30.346;2023-01-31T00:56:12;97775.41;;;1.43;100.00
66021;BME280;52789;59.980;30.346;2023-01-31T00:58:38;97780.63;;;1.43;100.00
66021;BME280;52789;59.980;30.346;2023-01-31T01:03:31;97794.19;;;1.32;100.00
66021;BME280;52789;59.980;30.346;2023-01-31T01:05:57;97798.72;;;1.15;100.00
66021;BME280;52789;59.980;30.346;2023-01-31T01:08:22;97806.66;;;1.07;100.00
66021;BME280;52789;59.980;30.346;2023-01-31T01:10:48;97799.31;;;1.02;100.00
66021;BME280;52789;59.980;30.346;2023-01-31T01:13:13;97793.31;;;0.93;100.00
66021;BME280;52789;59.980;30.346;2023-01-31T01:15:38;97806.31;;;0.87;100.00
66021;BME280;52789;59.980;30.346;2023-01-31T01:18:04;97792.06;;;0.81;100.00
66021;BME280;52789;59.980;30.346;2023-01-31T01:20:29;97802.91;;;0.78;100.00
66021;BME280;52789;59.980;30.346;2023-01-31T01:22:54;97803.59;;;0.72;100.00
66021;BME280;52789;59.980;30.346;2023-01-31T01:25:19;97806.84;;;0.74;100.00
66021;BME280;52789;59.980;30.346;2023-01-31T01:27:47;97807.84;;;0.73;100.00
66021;BME280;52789;59.980;30.346;2023-01-31T01:30:12;97809.47;;;0.74;100.00
66021;BME280;52789;59.980;30.346;2023-01-31T01:32:38;97812.56;;;0.78;100.00
66021;BME280;52789;59.980;30.346;2023-01-31T01:35:03;97813.25;;;0.72;100.00
66021;BME280;52789;59.980;30.346;2023-01-31T01:37:29;97812.44;;;0.71;100.00
66021;BME280;52789;59.980;30.346;2023-01-31T01:39:54;97810.13;;;0.76;100.00
66021;BME280;52789;59.980;30.346;2023-01-31T01:42:21;97814.66;;;0.82;100.00
66021;BME280;52789;59.980;30.346;2023-01-31T01:45:00;97815.81;;;0.80;100.00
66021;BME280;52789;59.980;30.346;2023-01-31T01:47:34;97817.28;;;0.82;100.00
66021;BME280;52789;59.980;30.346;2023-01-31T01:52:28;97810.41;;;0.81;100.00
66021;BME280;52789;59.980;30.346;2023-01-31T01:54:59;97828.09;;;0.87;100.00
66021;BME280;52789;59.980;30.346;2023-01-31T01:57:31;97829.53;;;0.90;100.00
66021;BME280;52789;59.980;30.346;2023-01-31T02:00:00;97835.25;;;0.93;100.00
66021;BME280;52789;59.980;30.346;2023-01-31T02:02:30;97836.59;;;0.89;100.00
66021;BME280;52789;59.980;30.346;2023-01-31T02:04:56;97837.22;;;0.91;100.00
66021;BME280;52789;59.980;30.346;2023-01-31T02:07:21;97837.88;;;0.93;100.00
66021;BME280;52789;59.980;30.346;2023-01-31T02:12:15;97832.28;;;0.97;100.00
66021;BME280;52789;59.980;30.346;2023-01-31T02:14:40;97835.53;;;0.99;100.00
66021;BME280;52789;59.980;30.346;2023-01-31T02:17:26;97852.25;;;0.98;100.00
66021;BME280;52789;59.980;30.346;2023-01-31T02:22:31;97849.63;;;0.98;100.00
66021;BME280;52789;59.980;30.346;2023-01-31T02:30:42;97862.00;;;0.81;100.00
66021;BME280;52789;59.980;30.346;2023-01-31T02:35:47;97868.09;;;0.73;100.00
66021;BME280;52789;59.980;30.346;2023-01-31T02:43:29;97873.97;;;0.75;100.00
66021;BME280;52789;59.980;30.346;2023-01-31T02:46:01;97876.44;;;0.77;100.00
66021;BME280;52789;59.980;30.346;2023-01-31T02:53:35;97888.09;;;0.66;100.00
66021;BME280;52789;59.980;30.346;2023-01-31T02:58:39;97899.63;;;0.49;100.00
66021;BME280;52789;59.980;30.346;2023-01-31T03:01:06;97895.19;;;0.49;100.00
66021;BME280;52789;59.980;30.346;2023-01-31T03:03:35;97903.03;;;0.49;100.00
66021;BME280;52789;59.980;30.346;2023-01-31T03:08:36;97907.81;;;0.46;100.00
66021;BME280;52789;59.980;30.346;2023-01-31T03:11:03;97933.03;;;0.39;100.00
66021;BME280;52789;59.980;30.346;2023-01-31T03:16:10;97918.47;;;0.28;100.00
66021;BME280;52789;59.980;30.346;2023-01-31T03:19:15;97926.34;;;0.20;100.00
66021;BME280;52789;59.980;30.346;2023-01-31T03:21:43;97928.16;;;0.19;100.00
66021;BME280;52789;59.980;30.346;2023-01-31T03:24:11;97930.59;;;0.21;100.00
66021;BME280;52789;59.980;30.346;2023-01-31T03:26:37;97928.16;;;0.19;100.00
66021;BME280;52789;59.980;30.346;2023-01-31T03:29:02;97929.94;;;0.19;100.00
66021;BME280;52789;59.980;30.346;2023-01-31T03:31:37;97935.00;;;0.20;100.00
66021;BME280;52789;59.980;30.346;2023-01-31T03:34:07;97940.72;;;0.24;100.00
66021;BME280;52789;59.980;30.346;2023-01-31T03:41:56;97955.63;;;0.23;100.00
66021;BME280;52789;59.980;30.346;2023-01-31T03:44:39;97963.31;;;0.25;100.00
66021;BME280;52789;59.980;30.346;2023-01-31T03:47:29;97967.72;;;0.24;100.00
66021;BME280;52789;59.980;30.346;2023-01-31T03:49:52;97968.38;;;0.26;100.00
66021;BME280;52789;59.980;30.346;2023-01-31T03:52:21;97978.84;;;0.26;100.00
66021;BME280;52789;59.980;30.346;2023-01-31T03:54:52;97980.47;;;0.27;100.00
66021;BME280;52789;59.980;30.346;2023-01-31T03:57:23;97981.63;;;0.25;100.00
66021;BME280;52789;59.980;30.346;2023-01-31T03:59:51;97985.06;;;0.25;100.00
66021;BME280;52789;59.980;30.346;2023-01-31T04:02:18;97981.16;;;0.29;100.00
66021;BME280;52789;59.980;30.346;2023-01-31T04:04:49;97989.34;;;0.35;100.00
66021;BME280;52789;59.980;30.346;2023-01-31T04:07:17;97998.16;;;0.34;100.00
66021;BME280;52789;59.980;30.346;2023-01-31T04:09:43;98007.50;;;0.36;100.00
66021;BME280;52789;59.980;30.346;2023-01-31T04:12:10;98016.81;;;0.30;100.00
66021;BME280;52789;59.980;30.346;2023-01-31T04:14:36;98009.28;;;0.27;100.00
66021;BME280;52789;59.980;30.346;2023-01-31T04:19:58;98008.97;;;0.14;100.00
66021;BME280;52789;59.980;30.346;2023-01-31T04:22:23;98015.84;;;0.15;100.00
66021;BME280;52789;59.980;30.346;2023-01-31T04:24:49;98018.13;;;0.18;100.00
66021;BME280;52789;59.980;30.346;2023-01-31T04:27:14;98022.38;;;0.19;100.00
66021;BME280;52789;59.980;30.346;2023-01-31T04:29:40;98017.78;;;0.21;100.00
66021;BME280;52789;59.980;30.346;2023-01-31T04:32:05;98025.63;;;0.21;100.00
66021;BME280;52789;59.980;30.346;2023-01-31T04:34:30;98041.19;;;0.23;100.00
66021;BME280;52789;59.980;30.346;2023-01-31T04:36:56;98034.16;;;0.15;100.00
66021;BME280;52789;59.980;30.346;2023-01-31T04:39:21;98041.84;;;0.09;100.00
66021;BME280;52789;59.980;30.346;2023-01-31T04:41:46;98038.41;;;0.00;100.00
66021;BME280;52789;59.980;30.346;2023-01-31T04:44:12;98049.50;;;-0.06;100.00
66021;BME280;52789;59.980;30.346;2023-01-31T04:46:38;98039.03;;;-0.06;100.00
66021;BME280;52789;59.980;30.346;2023-01-31T04:49:03;98048.88;;;0.00;100.00
66021;BME280;52789;59.980;30.346;2023-01-31T04:51:28;98039.53;;;-0.03;100.00
66021;BME280;52789;59.980;30.346;2023-01-31T04:53:54;98044.25;;;-0.06;100.00
66021;BME280;52789;59.980;30.346;2023-01-31T04:56:19;98052.78;;;-0.04;100.00
66021;BME280;52789;59.980;30.346;2023-01-31T04:58:44;98047.53;;;-0.04;100.00
66021;BME280;52789;59.980;30.346;2023-01-31T05:04:01;98062.91;;;-0.09;100.00
66021;BME280;52789;59.980;30.346;2023-01-31T05:06:26;98055.06;;;-0.09;100.00
66021;BME280;52789;59.980;30.346;2023-01-31T05:08:51;98061.25;;;-0.18;100.00
66021;BME280;52789;59.980;30.346;2023-01-31T05:11:19;98071.06;;;-0.28;100.00
66021;BME280;52789;59.980;30.346;2023-01-31T05:13:45;98081.66;;;-0.30;100.00
66021;BME280;52789;59.980;30.346;2023-01-31T05:16:11;98079.19;;;-0.32;100.00
66021;BME280;52789;59.980;30.346;2023-01-31T05:18:37;98085.41;;;-0.33;100.00
66021;BME280;52789;59.980;30.346;2023-01-31T05:21:03;98091.28;;;-0.39;100.00
66021;BME280;52789;59.980;30.346;2023-01-31T05:23:29;98086.03;;;-0.39;100.00
66021;BME280;52789;59.980;30.346;2023-01-31T05:25:54;98085.53;;;-0.42;100.00
66021;BME280;52789;59.980;30.346;2023-01-31T05:28:19;98093.53;;;-0.44;100.00
66021;BME280;52789;59.980;30.346;2023-01-31T05:30:45;98102.06;;;-0.42;100.00
66021;BME280;52789;59.980;30.346;2023-01-31T05:33:10;98094.69;;;-0.46;100.00
66021;BME280;52789;59.980;30.346;2023-01-31T05:35:36;98095.50;;;-0.46;100.00
66021;BME280;52789;59.980;30.346;2023-01-31T05:38:02;98097.13;;;-0.45;100.00
66021;BME280;52789;59.980;30.346;2023-01-31T05:40:28;98110.53;;;-0.48;100.00
66021;BME280;52789;59.980;30.346;2023-01-31T05:42:54;98119.69;;;-0.44;100.00
66021;BME280;52789;59.980;30.346;2023-01-31T05:45:19;98127.19;;;-0.49;100.00
66021;BME280;52789;59.980;30.346;2023-01-31T05:47:45;98130.78;;;-0.50;100.00
66021;BME280;52789;59.980;30.346;2023-01-31T05:50:10;98134.69;;;-0.54;100.00
66021;BME280;52789;59.980;30.346;2023-01-31T05:52:36;98143.34;;;-0.53;100.00
66021;BME280;52789;59.980;30.346;2023-01-31T05:55:01;98137.16;;;-0.52;100.00
66021;BME280;52789;59.980;30.346;2023-01-31T05:57:27;98138.94;;;-0.53;100.00
66021;BME280;52789;59.980;30.346;2023-01-31T05:59:53;98135.50;;;-0.53;100.00
66021;BME280;52789;59.980;30.346;2023-01-31T06:02:18;98146.47;;;-0.50;100.00
66021;BME280;52789;59.980;30.346;2023-01-31T06:04:44;98142.88;;;-0.49;100.00
66021;BME280;52789;59.980;30.346;2023-01-31T06:07:09;98148.78;;;-0.47;100.00
66021;BME280;52789;59.980;30.346;2023-01-31T06:09:34;98153.03;;;-0.46;100.00
66021;BME280;52789;59.980;30.346;2023-01-31T06:12:03;98164.97;;;-0.43;100.00
66021;BME280;52789;59.980;30.346;2023-01-31T06:14:28;98163.81;;;-0.41;100.00
66021;BME280;52789;59.980;30.346;2023-01-31T06:16:53;98171.34;;;-0.38;100.00
66021;BME280;52789;59.980;30.346;2023-01-31T06:19:19;98171.03;;;-0.35;100.00
66021;BME280;52789;59.980;30.346;2023-01-31T06:21:49;98175.94;;;-0.32;100.00
66021;BME280;52789;59.980;30.346;2023-01-31T06:24:14;98183.44;;;-0.37;100.00
66021;BME280;52789;59.980;30.346;2023-01-31T06:26:40;98185.41;;;-0.39;100.00
66021;BME280;52789;59.980;30.346;2023-01-31T06:29:08;98184.91;;;-0.42;100.00
66021;BME280;52789;59.980;30.346;2023-01-31T06:31:33;98182.13;;;-0.41;100.00
66021;BME280;52789;59.980;30.346;2023-01-31T06:33:59;98192.94;;;-0.36;100.00
66021;BME280;52789;59.980;30.346;2023-01-31T06:36:24;98192.63;;;-0.33;100.00
66021;BME280;52789;59.980;30.346;2023-01-31T06:38:52;98195.25;;;-0.33;100.00
66021;BME280;52789;59.980;30.346;2023-01-31T06:41:18;98198.50;;;-0.31;100.00
66021;BME280;52789;59.980;30.346;2023-01-31T06:46:31;98208.69;;;-0.27;100.00
66021;BME280;52789;59.980;30.346;2023-01-31T06:48:56;98196.88;;;-0.32;100.00
66021;BME280;52789;59.980;30.346;2023-01-31T06:51:21;98206.19;;;-0.29;100.00
66021;BME280;52789;59.980;30.346;2023-01-31T06:53:47;98219.44;;;-0.31;100.00
66021;BME280;52789;59.980;30.346;2023-01-31T06:56:12;98211.56;;;-0.39;100.00
66021;BME280;52789;59.980;30.346;2023-01-31T06:59:03;98229.03;;;-0.39;100.00
66021;BME280;52789;59.980;30.346;2023-01-31T07:01:29;98232.44;;;-0.47;100.00
66021;BME280;52789;59.980;30.346;2023-01-31T07:03:54;98237.66;;;-0.47;100.00
66021;BME280;52789;59.980;30.346;2023-01-31T07:06:19;98232.47;;;-0.39;100.00
66021;BME280;52789;59.980;30.346;2023-01-31T07:09:01;98233.97;;;-0.36;100.00
66021;BME280;52789;59.980;30.346;2023-01-31T07:11:36;98243.94;;;-0.32;100.00
66021;BME280;52789;59.980;30.346;2023-01-31T07:14:01;98240.59;;;-0.24;100.00
66021;BME280;52789;59.980;30.346;2023-01-31T07:16:26;98244.00;;;-0.23;100.00
66021;BME280;52789;59.980;30.346;2023-01-31T07:18:52;98250.41;;;-0.18;100.00
66021;BME280;52789;59.980;30.346;2023-01-31T07:21:21;98255.28;;;-0.23;100.00
66021;BME280;52789;59.980;30.346;2023-01-31T07:23:47;98254.47;;;-0.23;100.00
66021;BME280;52789;59.980;30.346;2023-01-31T07:26:12;98256.13;;;-0.22;100.00
66021;BME280;52789;59.980;30.346;2023-01-31T07:28:38;98259.66;;;-0.32;100.00
66021;BME280;52789;59.980;30.346;2023-01-31T07:31:07;98267.78;;;-0.35;100.00
66021;BME280;52789;59.980;30.346;2023-01-31T07:33:35;98266.81;;;-0.34;100.00
66021;BME280;52789;59.980;30.346;2023-01-31T07:36:01;98272.88;;;-0.33;100.00
66021;BME280;52789;59.980;30.346;2023-01-31T07:38:28;98283.56;;;-0.26;100.00
66021;BME280;52789;59.980;30.346;2023-01-31T07:40:53;98283.09;;;-0.22;100.00
66021;BME280;52789;59.980;30.346;2023-01-31T07:43:22;98277.41;;;-0.17;100.00
66021;BME280;52789;59.980;30.346;2023-01-31T07:45:47;98290.47;;;-0.17;100.00
66021;BME280;52789;59.980;30.346;2023-01-31T07:48:12;98291.44;;;-0.18;100.00
66021;BME280;52789;59.980;30.346;2023-01-31T07:50:37;98299.44;;;-0.20;100.00
66021;BME280;52789;59.980;30.346;2023-01-31T07:53:03;98303.03;;;-0.21;100.00
66021;BME280;52789;59.980;30.346;2023-01-31T07:55:28;98311.03;;;-0.22;100.00
66021;BME280;52789;59.980;30.346;2023-01-31T07:57:54;98315.47;;;-0.23;100.00
66021;BME280;52789;59.980;30.346;2023-01-31T08:00:22;98322.47;;;-0.23;100.00
66021;BME280;52789;59.980;30.346;2023-01-31T08:03:12;98328.06;;;-0.18;100.00
66021;BME280;52789;59.980;30.346;2023-01-31T08:05:58;98338.53;;;-0.18;100.00
66021;BME280;52789;59.980;30.346;2023-01-31T08:08:23;98339.16;;;-0.24;100.00
66021;BME280;52789;59.980;30.346;2023-01-31T08:10:48;98343.75;;;-0.18;100.00
66021;BME280;52789;59.980;30.346;2023-01-31T08:13:14;98349.63;;;-0.24;100.00
66021;BME280;52789;59.980;30.346;2023-01-31T08:15:39;98358.13;;;-0.22;100.00
66021;BME280;52789;59.980;30.346;2023-01-31T08:18:04;98360.75;;;-0.22;100.00
66021;BME280;52789;59.980;30.346;2023-01-31T08:20:30;98362.03;;;-0.26;100.00
66021;BME280;52789;59.980;30.346;2023-01-31T08:22:55;98366.94;;;-0.23;100.00
66021;BME280;52789;59.980;30.346;2023-01-31T08:25:22;98376.44;;;-0.22;100.00
66021;BME280;52789;59.980;30.346;2023-01-31T08:27:49;98376.28;;;-0.21;100.00
66021;BME280;52789;59.980;30.346;2023-01-31T08:30:15;98383.31;;;-0.21;100.00
66021;BME280;52789;59.980;30.346;2023-01-31T08:32:40;98393.25;;;-0.25;100.00
66021;BME280;52789;59.980;30.346;2023-01-31T08:35:06;98395.06;;;-0.25;100.00
66021;BME280;52789;59.980;30.346;2023-01-31T08:37:32;98392.44;;;-0.25;100.00
66021;BME280;52789;59.980;30.346;2023-01-31T08:39:58;98407.97;;;-0.24;100.00
66021;BME280;52789;59.980;30.346;2023-01-31T08:42:23;98406.84;;;-0.21;100.00
66021;BME280;52789;59.980;30.346;2023-01-31T08:44:49;98406.03;;;-0.22;100.00
66021;BME280;52789;59.980;30.346;2023-01-31T08:50:27;98403.25;;;-0.20;100.00
66021;BME280;52789;59.980;30.346;2023-01-31T08:52:56;98406.84;;;-0.21;100.00
66021;BME280;52789;59.980;30.346;2023-01-31T08:55:22;98411.41;;;-0.23;100.00
66021;BME280;52789;59.980;30.346;2023-01-31T08:57:48;98435.13;;;-0.25;100.00
66021;BME280;52789;59.980;30.346;2023-01-31T09:00:22;98430.03;;;-0.26;100.00
66021;BME280;52789;59.980;30.346;2023-01-31T09:02:53;98432.84;;;-0.20;100.00
66021;BME280;52789;59.980;30.346;2023-01-31T09:05:18;98441.00;;;-0.23;100.00
66021;BME280;52789;59.980;30.346;2023-01-31T09:07:44;98420.59;;;-0.19;100.00
66021;BME280;52789;59.980;30.346;2023-01-31T09:10:09;98439.28;;;-0.14;100.00
66021;BME280;52789;59.980;30.346;2023-01-31T09:12:35;98465.59;;;-0.16;100.00
66021;BME280;52789;59.980;30.346;2023-01-31T09:15:01;98445.47;;;-0.15;99.31
66021;BME280;52789;59.980;30.346;2023-01-31T09:17:26;98459.28;;;-0.05;99.56
66021;BME280;52789;59.980;30.346;2023-01-31T09:19:51;98463.53;;;-0.04;98.53
66021;BME280;52789;59.980;30.346;2023-01-31T09:22:16;98455.13;;;0.02;98.54
66021;BME280;52789;59.980;30.346;2023-01-31T09:24:42;98458.72;;;0.01;97.74
66021;BME280;52789;59.980;30.346;2023-01-31T09:27:07;98470.00;;;0.02;97.55
66021;BME280;52789;59.980;30.346;2023-01-31T09:29:32;98476.31;;;-0.01;97.46
66021;BME280;52789;59.980;30.346;2023-01-31T09:31:58;98481.34;;;-0.08;97.71
66021;BME280;52789;59.980;30.346;2023-01-31T09:34:29;98477.25;;;-0.10;97.49
66021;BME280;52789;59.980;30.346;2023-01-31T09:36:55;98472.63;;;-0.16;97.78
66021;BME280;52789;59.980;30.346;2023-01-31T09:39:25;98481.06;;;-0.22;98.09
66021;BME280;52789;59.980;30.346;2023-01-31T09:46:44;98500.72;;;-0.18;97.90
66021;BME280;52789;59.980;30.346;2023-01-31T09:49:20;98502.06;;;-0.14;97.77
66021;BME280;52789;59.980;30.346;2023-01-31T09:51:47;98508.34;;;-0.07;98.15
66021;BME280;52789;59.980;30.346;2023-01-31T09:54:20;98517.81;;;-0.06;98.06
66021;BME280;52789;59.980;30.346;2023-01-31T09:57:06;98514.63;;;0.00;98.24
66021;BME280;52789;59.980;30.346;2023-01-31T09:59:53;98514.69;;;0.08;98.37
66021;BME280;52789;59.980;30.346;2023-01-31T10:07:31;98536.50;;;-0.01;97.40
66021;BME280;52789;59.980;30.346;2023-01-31T10:12:53;98530.91;;;-0.06;97.22
66021;BME280;52789;59.980;30.346;2023-01-31T10:18:04;98542.81;;;0.06;97.74
66021;BME280;52789;59.980;30.346;2023-01-31T10:23:04;98555.34;;;0.20;98.44
66021;BME280;52789;59.980;30.346;2023-01-31T10:25:39;98560.13;;;0.25;98.34
66021;BME280;52789;59.980;30.346;2023-01-31T10:36:02;98573.09;;;-0.37;100.00
66021;BME280;52789;59.980;30.346;2023-01-31T10:38:34;98583.34;;;-0.43;100.00
66021;BME280;52789;59.980;30.346;2023-01-31T10:41:07;98581.34;;;-0.32;100.00
66021;BME280;52789;59.980;30.346;2023-01-31T10:43:50;98593.84;;;-0.25;100.00
66021;BME280;52789;59.980;30.346;2023-01-31T10:46:17;98586.97;;;-0.26;100.00
66021;BME280;52789;59.980;30.346;2023-01-31T10:48:43;98591.75;;;-0.22;100.00
66021;BME280;52789;59.980;30.346;2023-01-31T10:56:30;98608.28;;;-0.04;100.00
66021;BME280;52789;59.980;30.346;2023-01-31T10:58:57;98610.03;;;0.06;100.00
66021;BME280;52789;59.980;30.346;2023-01-31T11:01:25;98610.19;;;0.04;100.00
66021;BME280;52789;59.980;30.346;2023-01-31T11:03:52;98616.75;;;0.08;100.00
66021;BME280;52789;59.980;30.346;2023-01-31T11:06:18;98618.78;;;0.14;100.00
66021;BME280;52789;59.980;30.346;2023-01-31T11:11:17;98621.50;;;-0.05;97.71
66021;BME280;52789;59.980;30.346;2023-01-31T11:16:30;98622.25;;;-0.13;98.89
66021;BME280;52789;59.980;30.346;2023-01-31T11:19:14;98628.75;;;-0.17;99.30
66021;BME280;52789;59.980;30.346;2023-01-31T11:21:42;98640.88;;;-0.16;99.81
66021;BME280;52789;59.980;30.346;2023-01-31T11:24:16;98630.31;;;-0.24;98.88
66021;BME280;52789;59.980;30.346;2023-01-31T11:26:47;98631.00;;;-0.22;99.06
66021;BME280;52789;59.980;30.346;2023-01-31T11:29:35;98645.56;;;-0.19;98.24
66021;BME280;52789;59.980;30.346;2023-01-31T11:32:01;98640.28;;;-0.10;97.94
66021;BME280;52789;59.980;30.346;2023-01-31T11:34:28;98645.50;;;-0.10;96.46
66021;BME280;52789;59.980;30.346;2023-01-31T11:39:56;98651.94;;;-0.22;95.09
66021;BME280;52789;59.980;30.346;2023-01-31T11:42:22;98656.78;;;-0.27;95.80
66021;BME280;52789;59.980;30.346;2023-01-31T11:45:09;98660.47;;;-0.29;95.74
66021;BME280;52789;59.980;30.346;2023-01-31T11:47:48;98677.84;;;-0.28;94.70
66021;BME280;52789;59.980;30.346;2023-01-31T11:50:18;98671.34;;;-0.24;95.08
66021;BME280;52789;59.980;30.346;2023-01-31T11:52:44;98679.88;;;-0.22;94.59
66021;BME280;52789;59.980;30.346;2023-01-31T11:55:12;98678.09;;;-0.22;94.36
66021;BME280;52789;59.980;30.346;2023-01-31T11:57:41;98691.31;;;-0.23;94.08
66021;BME280;52789;59.980;30.346;2023-01-31T12:00:21;98693.94;;;-0.23;94.58
66021;BME280;52789;59.980;30.346;2023-01-31T12:02:49;98685.78;;;-0.20;95.21
66021;BME280;52789;59.980;30.346;2023-01-31T12:05:17;98690.88;;;-0.19;95.92
66021;BME280;52789;59.980;30.346;2023-01-31T12:07:47;98697.38;;;-0.23;95.61
66021;BME280;52789;59.980;30.346;2023-01-31T12:12:51;98709.63;;;-0.33;95.53
66021;BME280;52789;59.980;30.346;2023-01-31T12:15:17;98708.97;;;-0.35;95.54
66021;BME280;52789;59.980;30.346;2023-01-31T12:17:43;98710.75;;;-0.36;93.42
66021;BME280;52789;59.980;30.346;2023-01-31T12:20:13;98714.47;;;-0.28;93.53
66021;BME280;52789;59.980;30.346;2023-01-31T12:25:27;98727.63;;;-0.20;92.58
66021;BME280;52789;59.980;30.346;2023-01-31T12:33:06;98729.88;;;-0.35;91.70
66021;BME280;52789;59.980;30.346;2023-01-31T12:43:19;98746.41;;;-0.35;93.03
66021;BME280;52789;59.980;30.346;2023-01-31T12:45:56;98760.19;;;-0.42;92.62
66021;BME280;52789;59.980;30.346;2023-01-31T12:53:51;98776.19;;;-0.55;97.53
66021;BME280;52789;59.980;30.346;2023-01-31T12:59:04;98778.66;;;-0.44;93.36
66021;BME280;52789;59.980;30.346;2023-01-31T13:01:35;98789.94;;;-0.43;93.08
66021;BME280;52789;59.980;30.346;2023-01-31T13:06:37;98782.25;;;-0.54;91.92
66021;BME280;52789;59.980;30.346;2023-01-31T13:09:12;98785.97;;;-0.57;91.80
66021;BME280;52789;59.980;30.346;2023-01-31T13:14:16;98778.25;;;-0.49;91.70
66021;BME280;52789;59.980;30.346;2023-01-31T13:16:45;98778.69;;;-0.53;91.23
66021;BME280;52789;59.980;30.346;2023-01-31T13:21:59;98789.00;;;-0.52;92.14
66021;BME280;52789;59.980;30.346;2023-01-31T13:24:28;98787.19;;;-0.51;92.20
66021;BME280;52789;59.980;30.346;2023-01-31T13:26:57;98795.19;;;-0.53;92.00
66021;BME280;52789;59.980;30.346;2023-01-31T13:29:36;98794.06;;;-0.60;91.99
66021;BME280;52789;59.980;30.346;2023-01-31T13:37:38;98810.75;;;-0.71;90.87
66021;BME280;52789;59.980;30.346;2023-01-31T13:40:28;98803.72;;;-0.70;91.23
66021;BME280;52789;59.980;30.346;2023-01-31T13:43:00;98817.75;;;-0.71;91.04
66021;BME280;52789;59.980;30.346;2023-01-31T13:45:56;98813.09;;;-0.77;90.96
66021;BME280;52789;59.980;30.346;2023-01-31T13:48:33;98813.09;;;-0.77;91.54
66021;BME280;52789;59.980;30.346;2023-01-31T13:51:11;98815.28;;;-0.73;92.18
66021;BME280;52789;59.980;30.346;2023-01-31T13:53:46;98823.53;;;-0.68;92.28
66021;BME280;52789;59.980;30.346;2023-01-31T13:56:16;98827.66;;;-0.65;91.72
66021;BME280;52789;59.980;30.346;2023-01-31T13:58:44;98828.91;;;-0.69;91.15
66021;BME280;52789;59.980;30.346;2023-01-31T14:06:23;98847.75;;;-0.75;89.65
66021;BME280;52789;59.980;30.346;2023-01-31T14:09:20;98857.38;;;-0.76;89.14
66021;BME280;52789;59.980;30.346;2023-01-31T14:11:46;98854.91;;;-0.77;88.57
66021;BME280;52789;59.980;30.346;2023-01-31T14:14:55;98862.88;;;-0.79;89.24
66021;BME280;52789;59.980;30.346;2023-01-31T14:25:01;98864.69;;;-0.79;89.32
66021;BME280;52789;59.980;30.346;2023-01-31T14:27:38;98880.78;;;-0.74;89.86
66021;BME280;52789;59.980;30.346;2023-01-31T14:32:35;98887.09;;;-0.67;90.18
66021;BME280;52789;59.980;30.346;2023-01-31T14:37:40;98881.31;;;-0.61;90.47
66021;BME280;52789;59.980;30.346;2023-01-31T14:41:08;98892.88;;;-0.64;90.21
66021;BME280;52789;59.980;30.346;2023-01-31T14:45:57;98898.78;;;-0.62;91.65
66021;BME280;52789;59.980;30.346;2023-01-31T14:49:13;98900.44;;;-0.60;92.48
66021;BME280;52789;59.980;30.346;2023-01-31T14:56:24;98901.25;;;-0.60;91.87
66021;BME280;52789;59.980;30.346;2023-01-31T14:58:56;98908.88;;;-0.57;90.27
66021;BME280;52789;59.980;30.346;2023-01-31T15:01:24;98911.06;;;-0.52;90.63
66021;BME280;52789;59.980;30.346;2023-01-31T15:03:55;98916.28;;;-0.52;90.30
66021;BME280;52789;59.980;30.346;2023-01-31T15:06:27;98915.03;;;-0.48;90.33
66021;BME280;52789;59.980;30.346;2023-01-31T15:09:34;98919.31;;;-0.47;90.20
66021;BME280;52789;59.980;30.346;2023-01-31T15:11:46;98931.00;;;-0.51;90.28
66021;BME280;52789;59.980;30.346;2023-01-31T15:16:56;98919.31;;;-0.47;90.94
66021;BME280;52789;59.980;30.346;2023-01-31T15:19:23;98924.13;;;-0.43;91.32
66021;BME280;52789;59.980;30.346;2023-01-31T15:21:52;98927.16;;;-0.38;91.32
66021;BME280;52789;59.980;30.346;2023-01-31T15:24:20;98945.19;;;-0.35;91.64
66021;BME280;52789;59.980;30.346;2023-01-31T15:26:48;98942.56;;;-0.35;92.99
66021;BME280;52789;59.980;30.346;2023-01-31T15:29:28;98942.16;;;-0.30;92.97
66021;BME280;52789;59.980;30.346;2023-01-31T15:32:01;98944.38;;;-0.25;93.64
66021;BME280;52789;59.980;30.346;2023-01-31T15:34:30;98944.38;;;-0.25;94.73
66021;BME280;52789;59.980;30.346;2023-01-31T15:39:29;98954.56;;;-0.22;95.92